sensor_id;sensor_type;location;lat;lon;timestamp;temperature;humidity
27567;DHT22;15006;48.584;9.186;2023-04-30T00:02:07;9.40;91.60
27567;DHT22;15006;48.584;9.186;2023-04-30T00:04:33;9.40;91.60
27567;DHT22;15006;48.584;9.186;2023-04-30T00:06:59;9.30;91.60
27567;DHT22;15006;48.584;9.186;2023-04-30T00:09:25;9.30;91.60
27567;DHT22;15006;48.584;9.186;2023-04-30T00:11:51;9.30;91.70
27567;DHT22;15006;48.584;9.186;2023-04-30T00:14:18;9.30;91.70
27567;DHT22;15006;48.584;9.186;2023-04-30T00:16:43;9.20;91.70
27567;DHT22;15006;48.584;9.186;2023-04-30T00:19:09;9.20;91.70
27567;DHT22;15006;48.584;9.186;2023-04-30T00:21:35;9.20;91.80
27567;DHT22;15006;48.584;9.186;2023-04-30T00:24:01;9.20;91.90
27567;DHT22;15006;48.584;9.186;2023-04-30T00:26:29;9.20;91.90
27567;DHT22;15006;48.584;9.186;2023-04-30T00:28:58;9.20;91.90
27567;DHT22;15006;48.584;9.186;2023-04-30T00:31:24;9.10;91.90
27567;DHT22;15006;48.584;9.186;2023-04-30T00:33:50;9.10;92.00
27567;DHT22;15006;48.584;9.186;2023-04-30T00:36:16;9.00;92.10
27567;DHT22;15006;48.584;9.186;2023-04-30T00:38:42;9.00;92.20
27567;DHT22;15006;48.584;9.186;2023-04-30T00:41:08;9.10;92.30
27567;DHT22;15006;48.584;9.186;2023-04-30T00:43:34;9.00;92.30
27567;DHT22;15006;48.584;9.186;2023-04-30T00:46:01;9.00;92.40
27567;DHT22;15006;48.584;9.186;2023-04-30T00:48:29;9.00;92.40
27567;DHT22;15006;48.584;9.186;2023-04-30T00:50:55;9.00;92.40
27567;DHT22;15006;48.584;9.186;2023-04-30T00:53:21;9.00;92.30
27567;DHT22;15006;48.584;9.186;2023-04-30T00:55:47;8.90;92.40
27567;DHT22;15006;48.584;9.186;2023-04-30T00:58:14;9.00;92.40
27567;DHT22;15006;48.584;9.186;2023-04-30T01:00:41;8.90;92.40
27567;DHT22;15006;48.584;9.186;2023-04-30T01:03:14;9.00;92.50
27567;DHT22;15006;48.584;9.186;2023-04-30T01:05:41;8.90;92.10
27567;DHT22;15006;48.584;9.186;2023-04-30T01:08:08;9.00;92.40
27567;DHT22;15006;48.584;9.186;2023-04-30T01:10:41;8.90;92.30
27567;DHT22;15006;48.584;9.186;2023-04-30T01:13:17;8.90;92.00
27567;DHT22;15006;48.584;9.186;2023-04-30T01:18:51;8.90;91.60
27567;DHT22;15006;48.584;9.186;2023-04-30T01:21:21;8.90;91.80
27567;DHT22;15006;48.584;9.186;2023-04-30T01:24:17;8.90;91.60
27567;DHT22;15006;48.584;9.186;2023-04-30T01:30:17;8.90;91.70
27567;DHT22;15006;48.584;9.186;2023-04-30T01:32:44;8.90;92.50
27567;DHT22;15006;48.584;9.186;2023-04-30T01:35:09;8.80;92.50
27567;DHT22;15006;48.584;9.186;2023-04-30T01:38:08;8.80;92.50
27567;DHT22;15006;48.584;9.186;2023-04-30T01:40:47;8.80;92.30
27567;DHT22;15006;48.584;9.186;2023-04-30T01:43:19;8.80;92.20
27567;DHT22;15006;48.584;9.186;2023-04-30T01:46:23;8.80;91.80
27567;DHT22;15006;48.584;9.186;2023-04-30T01:54:18;8.80;92.50
27567;DHT22;15006;48.584;9.186;2023-04-30T01:57:12;8.80;92.60
27567;DHT22;15006;48.584;9.186;2023-04-30T01:59:54;8.80;92.30
27567;DHT22;15006;48.584;9.186;2023-04-30T02:02:20;8.70;93.10
27567;DHT22;15006;48.584;9.186;2023-04-30T02:04:46;8.70;93.10
27567;DHT22;15006;48.584;9.186;2023-04-30T02:07:19;8.70;93.10
27567;DHT22;15006;48.584;9.186;2023-04-30T02:09:53;8.70;92.90
27567;DHT22;15006;48.584;9.186;2023-04-30T02:12:19;8.70;93.20
27567;DHT22;15006;48.584;9.186;2023-04-30T02:14:45;8.70;93.20
27567;DHT22;15006;48.584;9.186;2023-04-30T02:17:11;8.60;93.30
27567;DHT22;15006;48.584;9.186;2023-04-30T02:19:37;8.70;93.30
27567;DHT22;15006;48.584;9.186;2023-04-30T02:22:03;8.60;93.30
27567;DHT22;15006;48.584;9.186;2023-04-30T02:24:29;8.60;93.30
27567;DHT22;15006;48.584;9.186;2023-04-30T02:26:55;8.60;93.40
27567;DHT22;15006;48.584;9.186;2023-04-30T02:29:21;8.50;93.40
27567;DHT22;15006;48.584;9.186;2023-04-30T02:31:47;8.60;93.40
27567;DHT22;15006;48.584;9.186;2023-04-30T02:34:13;8.60;93.40
27567;DHT22;15006;48.584;9.186;2023-04-30T02:36:38;8.50;93.30
27567;DHT22;15006;48.584;9.186;2023-04-30T02:39:04;8.50;93.30
27567;DHT22;15006;48.584;9.186;2023-04-30T02:41:30;8.40;93.30
27567;DHT22;15006;48.584;9.186;2023-04-30T02:43:56;8.40;93.30
27567;DHT22;15006;48.584;9.186;2023-04-30T02:46:22;8.40;93.40
27567;DHT22;15006;48.584;9.186;2023-04-30T02:48:48;8.40;93.40
27567;DHT22;15006;48.584;9.186;2023-04-30T02:51:15;8.30;93.30
27567;DHT22;15006;48.584;9.186;2023-04-30T02:53:40;8.30;93.30
27567;DHT22;15006;48.584;9.186;2023-04-30T02:56:06;8.20;93.30
27567;DHT22;15006;48.584;9.186;2023-04-30T02:58:32;8.20;93.40
27567;DHT22;15006;48.584;9.186;2023-04-30T03:00:58;8.10;93.40
27567;DHT22;15006;48.584;9.186;2023-04-30T03:03:25;8.10;93.40
27567;DHT22;15006;48.584;9.186;2023-04-30T03:05:51;8.10;93.50
27567;DHT22;15006;48.584;9.186;2023-04-30T03:08:17;8.00;93.60
27567;DHT22;15006;48.584;9.186;2023-04-30T03:10:43;7.90;93.60
27567;DHT22;15006;48.584;9.186;2023-04-30T03:13:09;7.90;93.60
27567;DHT22;15006;48.584;9.186;2023-04-30T03:15:35;7.90;93.70
27567;DHT22;15006;48.584;9.186;2023-04-30T03:18:01;7.80;93.80
27567;DHT22;15006;48.584;9.186;2023-04-30T03:20:28;7.80;93.90
27567;DHT22;15006;48.584;9.186;2023-04-30T03:22:54;7.80;94.00
27567;DHT22;15006;48.584;9.186;2023-04-30T03:25:20;7.70;94.00
27567;DHT22;15006;48.584;9.186;2023-04-30T03:27:46;7.70;94.20
27567;DHT22;15006;48.584;9.186;2023-04-30T03:30:12;7.70;94.30
27567;DHT22;15006;48.584;9.186;2023-04-30T03:32:38;7.60;94.40
27567;DHT22;15006;48.584;9.186;2023-04-30T03:35:05;7.60;94.50
27567;DHT22;15006;48.584;9.186;2023-04-30T03:37:31;7.60;94.60
27567;DHT22;15006;48.584;9.186;2023-04-30T03:39:57;7.60;94.60
27567;DHT22;15006;48.584;9.186;2023-04-30T03:42:23;7.60;94.80
27567;DHT22;15006;48.584;9.186;2023-04-30T03:44:49;7.60;94.80
27567;DHT22;15006;48.584;9.186;2023-04-30T03:47:15;7.60;94.90
27567;DHT22;15006;48.584;9.186;2023-04-30T03:49:41;7.50;95.00
27567;DHT22;15006;48.584;9.186;2023-04-30T03:52:07;7.50;95.40
27567;DHT22;15006;48.584;9.186;2023-04-30T03:54:33;7.50;95.10
27567;DHT22;15006;48.584;9.186;2023-04-30T03:56:59;7.50;95.10
27567;DHT22;15006;48.584;9.186;2023-04-30T03:59:30;7.50;95.20
27567;DHT22;15006;48.584;9.186;2023-04-30T04:01:57;7.50;95.20
27567;DHT22;15006;48.584;9.186;2023-04-30T04:04:22;7.40;95.20
27567;DHT22;15006;48.584;9.186;2023-04-30T04:06:48;7.40;95.20
27567;DHT22;15006;48.584;9.186;2023-04-30T04:09:14;7.40;95.30
27567;DHT22;15006;48.584;9.186;2023-04-30T04:11:43;7.30;95.30
27567;DHT22;15006;48.584;9.186;2023-04-30T04:14:08;7.30;95.40
27567;DHT22;15006;48.584;9.186;2023-04-30T04:16:34;7.30;95.40
27567;DHT22;15006;48.584;9.186;2023-04-30T04:19:00;7.30;95.50
27567;DHT22;15006;48.584;9.186;2023-04-30T04:21:26;7.30;95.60
27567;DHT22;15006;48.584;9.186;2023-04-30T04:23:53;7.20;95.60
27567;DHT22;15006;48.584;9.186;2023-04-30T04:26:19;7.20;95.70
27567;DHT22;15006;48.584;9.186;2023-04-30T04:28:46;7.20;95.80
27567;DHT22;15006;48.584;9.186;2023-04-30T04:31:12;7.20;95.80
27567;DHT22;15006;48.584;9.186;2023-04-30T04:33:38;7.20;96.00
27567;DHT22;15006;48.584;9.186;2023-04-30T04:36:04;7.20;96.20
27567;DHT22;15006;48.584;9.186;2023-04-30T04:38:31;7.10;96.30
27567;DHT22;15006;48.584;9.186;2023-04-30T04:40:58;7.10;96.60
27567;DHT22;15006;48.584;9.186;2023-04-30T04:43:24;7.20;96.70
27567;DHT22;15006;48.584;9.186;2023-04-30T04:45:50;7.10;96.90
27567;DHT22;15006;48.584;9.186;2023-04-30T04:48:16;7.20;97.00
27567;DHT22;15006;48.584;9.186;2023-04-30T04:50:42;7.20;97.30
27567;DHT22;15006;48.584;9.186;2023-04-30T04:53:09;7.20;97.40
27567;DHT22;15006;48.584;9.186;2023-04-30T04:55:35;7.30;97.70
27567;DHT22;15006;48.584;9.186;2023-04-30T04:58:01;7.30;97.90
27567;DHT22;15006;48.584;9.186;2023-04-30T05:00:27;7.40;98.00
27567;DHT22;15006;48.584;9.186;2023-04-30T05:02:54;7.40;98.10
27567;DHT22;15006;48.584;9.186;2023-04-30T05:05:20;7.50;98.00
27567;DHT22;15006;48.584;9.186;2023-04-30T05:07:46;7.50;98.00
27567;DHT22;15006;48.584;9.186;2023-04-30T05:10:13;7.60;98.10
27567;DHT22;15006;48.584;9.186;2023-04-30T05:12:39;7.70;98.00
27567;DHT22;15006;48.584;9.186;2023-04-30T05:15:06;7.70;97.90
27567;DHT22;15006;48.584;9.186;2023-04-30T05:17:32;7.80;97.80
27567;DHT22;15006;48.584;9.186;2023-04-30T05:19:58;7.80;97.80
27567;DHT22;15006;48.584;9.186;2023-04-30T05:22:24;7.90;97.80
27567;DHT22;15006;48.584;9.186;2023-04-30T05:24:50;7.90;97.70
27567;DHT22;15006;48.584;9.186;2023-04-30T05:27:17;8.00;97.60
27567;DHT22;15006;48.584;9.186;2023-04-30T05:29:43;8.00;97.50
27567;DHT22;15006;48.584;9.186;2023-04-30T05:32:09;8.10;97.50
27567;DHT22;15006;48.584;9.186;2023-04-30T05:34:35;8.10;97.50
27567;DHT22;15006;48.584;9.186;2023-04-30T05:37:01;8.20;97.40
27567;DHT22;15006;48.584;9.186;2023-04-30T05:39:29;8.20;97.40
27567;DHT22;15006;48.584;9.186;2023-04-30T05:41:55;8.20;97.30
27567;DHT22;15006;48.584;9.186;2023-04-30T05:44:21;8.30;97.40
27567;DHT22;15006;48.584;9.186;2023-04-30T05:46:47;8.30;97.40
27567;DHT22;15006;48.584;9.186;2023-04-30T05:49:13;8.40;97.40
27567;DHT22;15006;48.584;9.186;2023-04-30T05:51:39;8.50;97.50
27567;DHT22;15006;48.584;9.186;2023-04-30T05:54:05;8.60;97.40
27567;DHT22;15006;48.584;9.186;2023-04-30T05:56:31;8.60;97.60
27567;DHT22;15006;48.584;9.186;2023-04-30T05:58:57;8.70;97.20
27567;DHT22;15006;48.584;9.186;2023-04-30T06:01:23;8.70;97.00
27567;DHT22;15006;48.584;9.186;2023-04-30T06:03:49;8.80;96.70
27567;DHT22;15006;48.584;9.186;2023-04-30T06:06:16;8.90;96.60
27567;DHT22;15006;48.584;9.186;2023-04-30T06:08:42;9.00;96.70
27567;DHT22;15006;48.584;9.186;2023-04-30T06:11:11;9.10;96.30
27567;DHT22;15006;48.584;9.186;2023-04-30T06:13:38;9.10;96.10
27567;DHT22;15006;48.584;9.186;2023-04-30T06:16:05;9.20;95.90
27567;DHT22;15006;48.584;9.186;2023-04-30T06:18:31;9.20;95.70
27567;DHT22;15006;48.584;9.186;2023-04-30T06:20:57;9.30;95.60
27567;DHT22;15006;48.584;9.186;2023-04-30T06:23:23;9.30;95.40
27567;DHT22;15006;48.584;9.186;2023-04-30T06:25:49;9.50;95.50
27567;DHT22;15006;48.584;9.186;2023-04-30T06:28:15;9.50;95.30
27567;DHT22;15006;48.584;9.186;2023-04-30T06:30:42;9.60;95.10
27567;DHT22;15006;48.584;9.186;2023-04-30T06:33:08;9.60;95.00
27567;DHT22;15006;48.584;9.186;2023-04-30T06:35:34;9.70;95.10
27567;DHT22;15006;48.584;9.186;2023-04-30T06:38:01;9.80;94.90
27567;DHT22;15006;48.584;9.186;2023-04-30T06:40:28;9.80;94.50
27567;DHT22;15006;48.584;9.186;2023-04-30T06:42:54;9.90;94.70
27567;DHT22;15006;48.584;9.186;2023-04-30T06:45:20;10.10;94.30
27567;DHT22;15006;48.584;9.186;2023-04-30T06:47:46;10.10;94.10
27567;DHT22;15006;48.584;9.186;2023-04-30T06:50:12;10.20;94.00
27567;DHT22;15006;48.584;9.186;2023-04-30T06:52:40;10.30;94.00
27567;DHT22;15006;48.584;9.186;2023-04-30T06:55:06;10.40;93.60
27567;DHT22;15006;48.584;9.186;2023-04-30T06:57:33;10.50;93.40
27567;DHT22;15006;48.584;9.186;2023-04-30T07:00:05;10.60;93.50
27567;DHT22;15006;48.584;9.186;2023-04-30T07:02:32;10.70;93.00
27567;DHT22;15006;48.584;9.186;2023-04-30T07:04:58;10.80;93.00
27567;DHT22;15006;48.584;9.186;2023-04-30T07:07:24;10.90;92.70
27567;DHT22;15006;48.584;9.186;2023-04-30T07:09:50;11.00;92.50
27567;DHT22;15006;48.584;9.186;2023-04-30T07:12:18;11.10;92.40
27567;DHT22;15006;48.584;9.186;2023-04-30T07:14:44;11.20;92.10
27567;DHT22;15006;48.584;9.186;2023-04-30T07:17:10;11.30;91.90
27567;DHT22;15006;48.584;9.186;2023-04-30T07:19:36;11.40;91.60
27567;DHT22;15006;48.584;9.186;2023-04-30T07:22:02;11.50;91.40
27567;DHT22;15006;48.584;9.186;2023-04-30T07:24:30;11.60;91.10
27567;DHT22;15006;48.584;9.186;2023-04-30T07:26:55;11.70;91.00
27567;DHT22;15006;48.584;9.186;2023-04-30T07:29:23;11.80;91.30
27567;DHT22;15006;48.584;9.186;2023-04-30T07:31:49;11.90;90.50
27567;DHT22;15006;48.584;9.186;2023-04-30T07:34:16;12.00;90.00
27567;DHT22;15006;48.584;9.186;2023-04-30T07:36:42;12.10;89.40
27567;DHT22;15006;48.584;9.186;2023-04-30T07:39:08;12.20;89.30
27567;DHT22;15006;48.584;9.186;2023-04-30T07:41:36;12.30;89.50
27567;DHT22;15006;48.584;9.186;2023-04-30T07:44:02;12.50;89.40
27567;DHT22;15006;48.584;9.186;2023-04-30T07:46:29;12.60;89.30
27567;DHT22;15006;48.584;9.186;2023-04-30T07:48:55;12.80;89.30
27567;DHT22;15006;48.584;9.186;2023-04-30T07:51:22;13.10;88.40
27567;DHT22;15006;48.584;9.186;2023-04-30T07:53:48;13.30;87.60
27567;DHT22;15006;48.584;9.186;2023-04-30T07:56:14;13.70;86.70
27567;DHT22;15006;48.584;9.186;2023-04-30T07:58:41;13.90;86.40
27567;DHT22;15006;48.584;9.186;2023-04-30T08:01:15;14.20;84.70
27567;DHT22;15006;48.584;9.186;2023-04-30T08:03:41;14.40;79.60
27567;DHT22;15006;48.584;9.186;2023-04-30T08:06:07;14.70;80.60
27567;DHT22;15006;48.584;9.186;2023-04-30T08:08:33;14.80;79.60
27567;DHT22;15006;48.584;9.186;2023-04-30T08:10:59;15.00;79.60
27567;DHT22;15006;48.584;9.186;2023-04-30T08:13:26;15.20;79.00
27567;DHT22;15006;48.584;9.186;2023-04-30T08:15:52;15.50;78.70
27567;DHT22;15006;48.584;9.186;2023-04-30T08:18:18;15.70;77.10
27567;DHT22;15006;48.584;9.186;2023-04-30T08:20:44;16.00;76.30
27567;DHT22;15006;48.584;9.186;2023-04-30T08:23:10;16.20;74.40
27567;DHT22;15006;48.584;9.186;2023-04-30T08:25:37;16.50;73.50
27567;DHT22;15006;48.584;9.186;2023-04-30T08:28:03;16.70;73.00
27567;DHT22;15006;48.584;9.186;2023-04-30T08:30:30;16.90;71.50
27567;DHT22;15006;48.584;9.186;2023-04-30T08:32:56;17.00;68.40
27567;DHT22;15006;48.584;9.186;2023-04-30T08:35:22;17.10;66.10
27567;DHT22;15006;48.584;9.186;2023-04-30T08:37:48;17.10;65.20
27567;DHT22;15006;48.584;9.186;2023-04-30T08:40:15;17.20;65.60
27567;DHT22;15006;48.584;9.186;2023-04-30T08:42:45;17.20;64.40
27567;DHT22;15006;48.584;9.186;2023-04-30T08:45:15;17.20;62.60
27567;DHT22;15006;48.584;9.186;2023-04-30T08:47:44;17.20;64.70
27567;DHT22;15006;48.584;9.186;2023-04-30T08:50:11;17.30;62.90
27567;DHT22;15006;48.584;9.186;2023-04-30T08:52:38;17.30;62.70
27567;DHT22;15006;48.584;9.186;2023-04-30T08:55:06;17.20;62.00
27567;DHT22;15006;48.584;9.186;2023-04-30T08:57:34;17.10;61.00
27567;DHT22;15006;48.584;9.186;2023-04-30T09:00:00;17.00;62.50
27567;DHT22;15006;48.584;9.186;2023-04-30T09:02:31;17.00;63.40
27567;DHT22;15006;48.584;9.186;2023-04-30T09:04:58;17.10;63.90
27567;DHT22;15006;48.584;9.186;2023-04-30T09:07:24;17.30;63.80
27567;DHT22;15006;48.584;9.186;2023-04-30T09:09:53;17.40;62.50
27567;DHT22;15006;48.584;9.186;2023-04-30T09:12:19;17.50;62.30
27567;DHT22;15006;48.584;9.186;2023-04-30T09:15:00;17.60;60.20
27567;DHT22;15006;48.584;9.186;2023-04-30T09:17:27;17.50;57.40
27567;DHT22;15006;48.584;9.186;2023-04-30T09:19:53;17.40;59.70
27567;DHT22;15006;48.584;9.186;2023-04-30T09:22:22;17.20;59.00
27567;DHT22;15006;48.584;9.186;2023-04-30T09:24:50;17.10;60.10
27567;DHT22;15006;48.584;9.186;2023-04-30T09:27:18;17.00;60.00
27567;DHT22;15006;48.584;9.186;2023-04-30T09:29:45;17.00;59.50
27567;DHT22;15006;48.584;9.186;2023-04-30T09:32:11;16.90;59.30
27567;DHT22;15006;48.584;9.186;2023-04-30T09:34:38;16.80;60.00
27567;DHT22;15006;48.584;9.186;2023-04-30T09:37:05;16.80;60.10
27567;DHT22;15006;48.584;9.186;2023-04-30T09:39:32;16.70;60.80
27567;DHT22;15006;48.584;9.186;2023-04-30T09:42:11;16.70;61.30
27567;DHT22;15006;48.584;9.186;2023-04-30T09:44:39;16.70;58.40
27567;DHT22;15006;48.584;9.186;2023-04-30T09:47:10;16.60;60.00
27567;DHT22;15006;48.584;9.186;2023-04-30T09:49:40;16.50;59.00
27567;DHT22;15006;48.584;9.186;2023-04-30T09:52:08;16.50;60.10
27567;DHT22;15006;48.584;9.186;2023-04-30T09:54:34;16.40;59.90
27567;DHT22;15006;48.584;9.186;2023-04-30T09:57:02;16.20;60.60
27567;DHT22;15006;48.584;9.186;2023-04-30T09:59:33;16.20;61.30
27567;DHT22;15006;48.584;9.186;2023-04-30T10:02:03;16.10;60.20
27567;DHT22;15006;48.584;9.186;2023-04-30T10:04:33;16.10;60.90
27567;DHT22;15006;48.584;9.186;2023-04-30T10:07:03;16.10;60.10
27567;DHT22;15006;48.584;9.186;2023-04-30T10:09:38;16.20;61.30
27567;DHT22;15006;48.584;9.186;2023-04-30T10:12:10;16.10;60.10
27567;DHT22;15006;48.584;9.186;2023-04-30T10:14:47;16.20;60.80
27567;DHT22;15006;48.584;9.186;2023-04-30T10:17:17;16.20;60.10
27567;DHT22;15006;48.584;9.186;2023-04-30T10:19:47;16.20;59.80
27567;DHT22;15006;48.584;9.186;2023-04-30T10:22:15;16.20;59.90
27567;DHT22;15006;48.584;9.186;2023-04-30T10:24:41;16.10;59.80
27567;DHT22;15006;48.584;9.186;2023-04-30T10:27:09;16.00;59.60
27567;DHT22;15006;48.584;9.186;2023-04-30T10:29:35;15.90;59.90
27567;DHT22;15006;48.584;9.186;2023-04-30T10:32:01;15.80;60.00
27567;DHT22;15006;48.584;9.186;2023-04-30T10:34:56;15.70;60.90
27567;DHT22;15006;48.584;9.186;2023-04-30T10:37:43;15.70;58.80
27567;DHT22;15006;48.584;9.186;2023-04-30T10:40:15;15.70;60.50
27567;DHT22;15006;48.584;9.186;2023-04-30T10:42:48;15.70;61.80
27567;DHT22;15006;48.584;9.186;2023-04-30T10:45:15;15.60;60.10
27567;DHT22;15006;48.584;9.186;2023-04-30T10:47:42;15.60;60.90
27567;DHT22;15006;48.584;9.186;2023-04-30T10:50:10;15.70;60.70
27567;DHT22;15006;48.584;9.186;2023-04-30T10:52:38;15.70;60.90
27567;DHT22;15006;48.584;9.186;2023-04-30T10:55:06;15.80;60.00
27567;DHT22;15006;48.584;9.186;2023-04-30T10:57:40;15.80;59.70
27567;DHT22;15006;48.584;9.186;2023-04-30T11:02:42;15.80;59.90
27567;DHT22;15006;48.584;9.186;2023-04-30T11:05:16;15.80;59.70
27567;DHT22;15006;48.584;9.186;2023-04-30T11:10:14;15.80;59.60
27567;DHT22;15006;48.584;9.186;2023-04-30T11:12:46;15.80;59.70
27567;DHT22;15006;48.584;9.186;2023-04-30T11:15:16;15.80;58.00
27567;DHT22;15006;48.584;9.186;2023-04-30T11:17:43;15.80;59.40
27567;DHT22;15006;48.584;9.186;2023-04-30T11:20:23;15.90;59.40
27567;DHT22;15006;48.584;9.186;2023-04-30T11:23:10;15.90;58.50
27567;DHT22;15006;48.584;9.186;2023-04-30T11:25:46;15.90;58.60
27567;DHT22;15006;48.584;9.186;2023-04-30T11:28:17;16.00;59.80
27567;DHT22;15006;48.584;9.186;2023-04-30T11:30:56;16.00;58.70
27567;DHT22;15006;48.584;9.186;2023-04-30T11:33:28;16.10;57.20
27567;DHT22;15006;48.584;9.186;2023-04-30T11:35:55;16.10;58.00
27567;DHT22;15006;48.584;9.186;2023-04-30T11:38:35;16.10;58.30
27567;DHT22;15006;48.584;9.186;2023-04-30T11:41:03;16.10;57.40
27567;DHT22;15006;48.584;9.186;2023-04-30T11:43:30;16.20;57.90
27567;DHT22;15006;48.584;9.186;2023-04-30T11:48:35;16.10;57.20
27567;DHT22;15006;48.584;9.186;2023-04-30T11:51:04;16.10;58.20
27567;DHT22;15006;48.584;9.186;2023-04-30T11:53:31;16.10;57.70
27567;DHT22;15006;48.584;9.186;2023-04-30T11:56:02;16.20;57.90
27567;DHT22;15006;48.584;9.186;2023-04-30T11:58:35;16.20;56.50
27567;DHT22;15006;48.584;9.186;2023-04-30T12:01:06;16.20;56.50
27567;DHT22;15006;48.584;9.186;2023-04-30T12:03:42;16.20;56.90
27567;DHT22;15006;48.584;9.186;2023-04-30T12:06:20;16.30;56.00
27567;DHT22;15006;48.584;9.186;2023-04-30T12:08:47;16.30;56.70
27567;DHT22;15006;48.584;9.186;2023-04-30T12:11:24;16.30;57.40
27567;DHT22;15006;48.584;9.186;2023-04-30T12:16:27;16.50;56.50
27567;DHT22;15006;48.584;9.186;2023-04-30T12:19:02;16.50;57.70
27567;DHT22;15006;48.584;9.186;2023-04-30T12:21:29;16.60;57.40
27567;DHT22;15006;48.584;9.186;2023-04-30T12:23:55;16.70;56.20
27567;DHT22;15006;48.584;9.186;2023-04-30T12:26:21;16.80;55.30
27567;DHT22;15006;48.584;9.186;2023-04-30T12:28:48;16.80;55.60
27567;DHT22;15006;48.584;9.186;2023-04-30T12:31:16;16.90;55.40
27567;DHT22;15006;48.584;9.186;2023-04-30T12:33:43;16.80;55.00
27567;DHT22;15006;48.584;9.186;2023-04-30T12:36:09;16.90;55.90
27567;DHT22;15006;48.584;9.186;2023-04-30T12:38:35;17.00;55.30
27567;DHT22;15006;48.584;9.186;2023-04-30T12:41:04;17.10;55.60
27567;DHT22;15006;48.584;9.186;2023-04-30T12:43:30;17.30;55.00
27567;DHT22;15006;48.584;9.186;2023-04-30T12:45:56;17.50;55.60
27567;DHT22;15006;48.584;9.186;2023-04-30T12:48:24;17.70;56.80
27567;DHT22;15006;48.584;9.186;2023-04-30T12:50:57;17.90;55.80
27567;DHT22;15006;48.584;9.186;2023-04-30T12:53:26;18.10;54.50
27567;DHT22;15006;48.584;9.186;2023-04-30T12:58:35;18.40;52.60
27567;DHT22;15006;48.584;9.186;2023-04-30T13:01:01;18.50;54.00
27567;DHT22;15006;48.584;9.186;2023-04-30T13:03:28;18.70;54.50
27567;DHT22;15006;48.584;9.186;2023-04-30T13:05:54;18.90;53.90
27567;DHT22;15006;48.584;9.186;2023-04-30T13:08:20;19.10;53.40
27567;DHT22;15006;48.584;9.186;2023-04-30T13:10:47;19.20;52.60
27567;DHT22;15006;48.584;9.186;2023-04-30T13:13:16;19.30;53.10
27567;DHT22;15006;48.584;9.186;2023-04-30T13:15:43;19.40;52.20
27567;DHT22;15006;48.584;9.186;2023-04-30T13:18:10;19.50;52.20
27567;DHT22;15006;48.584;9.186;2023-04-30T13:20:37;19.50;51.10
27567;DHT22;15006;48.584;9.186;2023-04-30T13:23:05;19.50;50.00
27567;DHT22;15006;48.584;9.186;2023-04-30T13:25:32;19.50;50.50
27567;DHT22;15006;48.584;9.186;2023-04-30T13:27:58;19.60;51.50
27567;DHT22;15006;48.584;9.186;2023-04-30T13:30:24;19.60;52.10
27567;DHT22;15006;48.584;9.186;2023-04-30T13:32:50;19.70;52.70
27567;DHT22;15006;48.584;9.186;2023-04-30T13:35:17;20.00;51.90
27567;DHT22;15006;48.584;9.186;2023-04-30T13:37:44;20.20;51.60
27567;DHT22;15006;48.584;9.186;2023-04-30T13:40:10;20.50;51.10
27567;DHT22;15006;48.584;9.186;2023-04-30T13:42:37;20.80;51.70
27567;DHT22;15006;48.584;9.186;2023-04-30T13:45:05;21.10;51.20
27567;DHT22;15006;48.584;9.186;2023-04-30T13:47:32;21.40;50.30
27567;DHT22;15006;48.584;9.186;2023-04-30T13:49:59;21.70;50.30
27567;DHT22;15006;48.584;9.186;2023-04-30T13:52:25;21.80;49.40
27567;DHT22;15006;48.584;9.186;2023-04-30T13:54:51;22.00;48.40
27567;DHT22;15006;48.584;9.186;2023-04-30T13:57:18;22.00;47.20
27567;DHT22;15006;48.584;9.186;2023-04-30T13:59:44;21.80;46.90
27567;DHT22;15006;48.584;9.186;2023-04-30T14:02:10;21.60;45.80
27567;DHT22;15006;48.584;9.186;2023-04-30T14:04:37;21.40;45.90
27567;DHT22;15006;48.584;9.186;2023-04-30T14:07:03;21.30;46.60
27567;DHT22;15006;48.584;9.186;2023-04-30T14:09:29;21.10;46.00
27567;DHT22;15006;48.584;9.186;2023-04-30T14:11:56;20.80;45.60
27567;DHT22;15006;48.584;9.186;2023-04-30T14:14:24;20.60;46.50
27567;DHT22;15006;48.584;9.186;2023-04-30T14:16:51;20.40;45.70
27567;DHT22;15006;48.584;9.186;2023-04-30T14:19:18;20.30;46.00
27567;DHT22;15006;48.584;9.186;2023-04-30T14:21:45;20.10;47.20
27567;DHT22;15006;48.584;9.186;2023-04-30T14:24:11;20.00;47.70
27567;DHT22;15006;48.584;9.186;2023-04-30T14:26:38;19.90;47.30
27567;DHT22;15006;48.584;9.186;2023-04-30T14:29:05;19.80;46.80
27567;DHT22;15006;48.584;9.186;2023-04-30T14:31:32;19.70;46.80
27567;DHT22;15006;48.584;9.186;2023-04-30T14:33:58;19.60;46.80
27567;DHT22;15006;48.584;9.186;2023-04-30T14:36:25;19.40;47.40
27567;DHT22;15006;48.584;9.186;2023-04-30T14:38:52;19.30;47.80
27567;DHT22;15006;48.584;9.186;2023-04-30T14:41:19;19.30;48.50
27567;DHT22;15006;48.584;9.186;2023-04-30T14:43:46;19.20;48.70
27567;DHT22;15006;48.584;9.186;2023-04-30T14:46:13;19.20;49.10
27567;DHT22;15006;48.584;9.186;2023-04-30T14:48:40;19.20;48.70
27567;DHT22;15006;48.584;9.186;2023-04-30T14:51:06;19.30;48.80
27567;DHT22;15006;48.584;9.186;2023-04-30T14:53:33;19.30;48.70
27567;DHT22;15006;48.584;9.186;2023-04-30T14:55:59;19.50;48.90
27567;DHT22;15006;48.584;9.186;2023-04-30T14:58:28;19.70;48.80
27567;DHT22;15006;48.584;9.186;2023-04-30T15:00:54;19.90;49.20
27567;DHT22;15006;48.584;9.186;2023-04-30T15:03:20;20.10;49.30
27567;DHT22;15006;48.584;9.186;2023-04-30T15:05:47;20.40;48.50
27567;DHT22;15006;48.584;9.186;2023-04-30T15:08:17;20.60;48.50
27567;DHT22;15006;48.584;9.186;2023-04-30T15:10:45;20.70;47.40
27567;DHT22;15006;48.584;9.186;2023-04-30T15:13:11;20.80;46.70
27567;DHT22;15006;48.584;9.186;2023-04-30T15:15:38;20.90;47.00
27567;DHT22;15006;48.584;9.186;2023-04-30T15:18:05;21.10;47.10
27567;DHT22;15006;48.584;9.186;2023-04-30T15:20:32;21.10;46.20
27567;DHT22;15006;48.584;9.186;2023-04-30T15:22:58;21.20;45.50
27567;DHT22;15006;48.584;9.186;2023-04-30T15:25:24;21.10;44.50
27567;DHT22;15006;48.584;9.186;2023-04-30T15:27:51;21.10;44.80
27567;DHT22;15006;48.584;9.186;2023-04-30T15:30:17;21.00;44.60
27567;DHT22;15006;48.584;9.186;2023-04-30T15:32:45;20.80;45.10
27567;DHT22;15006;48.584;9.186;2023-04-30T15:35:15;20.60;44.20
27567;DHT22;15006;48.584;9.186;2023-04-30T15:38:03;20.40;43.50
27567;DHT22;15006;48.584;9.186;2023-04-30T15:40:31;20.00;43.80
27567;DHT22;15006;48.584;9.186;2023-04-30T15:42:57;19.80;44.50
27567;DHT22;15006;48.584;9.186;2023-04-30T15:45:48;19.60;45.60
27567;DHT22;15006;48.584;9.186;2023-04-30T15:48:22;19.30;44.80
27567;DHT22;15006;48.584;9.186;2023-04-30T15:50:48;19.10;45.70
27567;DHT22;15006;48.584;9.186;2023-04-30T15:53:27;18.90;46.00
27567;DHT22;15006;48.584;9.186;2023-04-30T15:55:56;18.70;45.10
27567;DHT22;15006;48.584;9.186;2023-04-30T15:58:22;18.60;46.90
27567;DHT22;15006;48.584;9.186;2023-04-30T16:00:48;18.40;46.70
27567;DHT22;15006;48.584;9.186;2023-04-30T16:03:14;18.30;46.80
27567;DHT22;15006;48.584;9.186;2023-04-30T16:05:41;18.20;47.60
27567;DHT22;15006;48.584;9.186;2023-04-30T16:08:08;18.00;47.90